sensor_id;sensor_type;location;lat;lon;timestamp;temperature;humidity
31369;DHT22;18004;48.416;10.066;2022-08-19T00:00:20;18.90;99.90
31369;DHT22;18004;48.416;10.066;2022-08-19T00:02:47;18.80;99.90
31369;DHT22;18004;48.416;10.066;2022-08-19T00:05:13;18.70;99.90
31369;DHT22;18004;48.416;10.066;2022-08-19T00:07:40;18.70;99.90
31369;DHT22;18004;48.416;10.066;2022-08-19T00:10:07;18.80;99.90
31369;DHT22;18004;48.416;10.066;2022-08-19T00:12:34;18.80;99.90
31369;DHT22;18004;48.416;10.066;2022-08-19T00:15:00;18.70;99.90
31369;DHT22;18004;48.416;10.066;2022-08-19T00:17:26;18.70;99.90
31369;DHT22;18004;48.416;10.066;2022-08-19T00:19:51;18.70;99.90
31369;DHT22;18004;48.416;10.066;2022-08-19T00:22:17;18.50;99.90
31369;DHT22;18004;48.416;10.066;2022-08-19T00:24:45;18.40;99.90
31369;DHT22;18004;48.416;10.066;2022-08-19T00:27:11;18.30;99.90
31369;DHT22;18004;48.416;10.066;2022-08-19T00:29:37;18.20;99.90
31369;DHT22;18004;48.416;10.066;2022-08-19T00:32:04;18.10;99.90
31369;DHT22;18004;48.416;10.066;2022-08-19T00:34:30;18.10;99.90
31369;DHT22;18004;48.416;10.066;2022-08-19T00:36:56;18.00;99.90
31369;DHT22;18004;48.416;10.066;2022-08-19T00:39:22;18.00;99.90
31369;DHT22;18004;48.416;10.066;2022-08-19T00:41:49;17.90;99.90
31369;DHT22;18004;48.416;10.066;2022-08-19T00:44:22;17.90;99.90
31369;DHT22;18004;48.416;10.066;2022-08-19T00:46:50;17.90;99.90
31369;DHT22;18004;48.416;10.066;2022-08-19T00:51:45;17.90;99.90
31369;DHT22;18004;48.416;10.066;2022-08-19T00:54:12;17.90;99.90
31369;DHT22;18004;48.416;10.066;2022-08-19T00:56:38;18.00;99.90
31369;DHT22;18004;48.416;10.066;2022-08-19T00:59:06;18.00;99.90
31369;DHT22;18004;48.416;10.066;2022-08-19T01:01:39;18.00;99.90
31369;DHT22;18004;48.416;10.066;2022-08-19T01:04:06;17.90;99.90
31369;DHT22;18004;48.416;10.066;2022-08-19T01:06:33;18.00;99.90
31369;DHT22;18004;48.416;10.066;2022-08-19T01:08:59;18.00;99.90
31369;DHT22;18004;48.416;10.066;2022-08-19T01:11:27;18.00;99.90
31369;DHT22;18004;48.416;10.066;2022-08-19T01:13:54;18.10;99.90
31369;DHT22;18004;48.416;10.066;2022-08-19T01:16:22;18.30;99.90
31369;DHT22;18004;48.416;10.066;2022-08-19T01:18:49;18.20;99.90
31369;DHT22;18004;48.416;10.066;2022-08-19T01:23:48;18.10;99.90
31369;DHT22;18004;48.416;10.066;2022-08-19T01:26:17;18.00;99.90
31369;DHT22;18004;48.416;10.066;2022-08-19T01:28:46;18.10;99.90
31369;DHT22;18004;48.416;10.066;2022-08-19T01:31:19;18.20;99.90
31369;DHT22;18004;48.416;10.066;2022-08-19T01:33:48;18.30;99.90
31369;DHT22;18004;48.416;10.066;2022-08-19T01:36:39;18.30;99.90
31369;DHT22;18004;48.416;10.066;2022-08-19T01:39:07;18.30;99.90
31369;DHT22;18004;48.416;10.066;2022-08-19T01:41:33;18.20;99.90
31369;DHT22;18004;48.416;10.066;2022-08-19T01:43:59;18.10;99.90
31369;DHT22;18004;48.416;10.066;2022-08-19T01:46:29;18.10;99.90
31369;DHT22;18004;48.416;10.066;2022-08-19T01:48:55;18.10;99.90
31369;DHT22;18004;48.416;10.066;2022-08-19T01:51:21;18.20;99.90
31369;DHT22;18004;48.416;10.066;2022-08-19T01:53:51;18.20;99.90
31369;DHT22;18004;48.416;10.066;2022-08-19T01:56:18;18.30;99.90
31369;DHT22;18004;48.416;10.066;2022-08-19T01:59:20;18.40;99.90
31369;DHT22;18004;48.416;10.066;2022-08-19T02:01:39;18.40;99.90
31369;DHT22;18004;48.416;10.066;2022-08-19T02:04:05;18.40;99.90
31369;DHT22;18004;48.416;10.066;2022-08-19T02:06:31;18.40;99.90
31369;DHT22;18004;48.416;10.066;2022-08-19T02:08:58;18.50;99.90
31369;DHT22;18004;48.416;10.066;2022-08-19T02:11:27;18.50;99.90
31369;DHT22;18004;48.416;10.066;2022-08-19T02:13:54;18.40;99.90
31369;DHT22;18004;48.416;10.066;2022-08-19T02:16:21;18.30;99.90
31369;DHT22;18004;48.416;10.066;2022-08-19T02:18:47;18.10;99.90
31369;DHT22;18004;48.416;10.066;2022-08-19T02:21:17;18.10;99.90
31369;DHT22;18004;48.416;10.066;2022-08-19T02:23:43;18.20;99.90
31369;DHT22;18004;48.416;10.066;2022-08-19T02:26:10;18.20;99.90
31369;DHT22;18004;48.416;10.066;2022-08-19T02:28:36;18.10;99.90
31369;DHT22;18004;48.416;10.066;2022-08-19T02:31:02;18.00;99.90
31369;DHT22;18004;48.416;10.066;2022-08-19T02:33:29;18.00;99.90
31369;DHT22;18004;48.416;10.066;2022-08-19T02:35:55;18.00;99.90
31369;DHT22;18004;48.416;10.066;2022-08-19T02:38:20;18.00;99.90
31369;DHT22;18004;48.416;10.066;2022-08-19T02:41:00;18.00;99.90
31369;DHT22;18004;48.416;10.066;2022-08-19T02:43:28;18.00;99.90
31369;DHT22;18004;48.416;10.066;2022-08-19T02:45:54;18.00;99.90
31369;DHT22;18004;48.416;10.066;2022-08-19T02:48:22;18.10;99.90
31369;DHT22;18004;48.416;10.066;2022-08-19T02:50:50;18.20;99.90
31369;DHT22;18004;48.416;10.066;2022-08-19T02:53:26;18.10;99.90
31369;DHT22;18004;48.416;10.066;2022-08-19T02:55:52;18.10;99.90
31369;DHT22;18004;48.416;10.066;2022-08-19T02:58:19;18.20;99.90
31369;DHT22;18004;48.416;10.066;2022-08-19T03:00:59;18.20;99.90
31369;DHT22;18004;48.416;10.066;2022-08-19T03:03:25;18.10;99.90
31369;DHT22;18004;48.416;10.066;2022-08-19T03:05:50;18.10;99.90
31369;DHT22;18004;48.416;10.066;2022-08-19T03:08:16;18.20;99.90
31369;DHT22;18004;48.416;10.066;2022-08-19T03:10:44;18.30;99.90
31369;DHT22;18004;48.416;10.066;2022-08-19T03:13:17;18.30;99.90
31369;DHT22;18004;48.416;10.066;2022-08-19T03:15:43;18.20;99.90
31369;DHT22;18004;48.416;10.066;2022-08-19T03:18:09;18.30;99.90
31369;DHT22;18004;48.416;10.066;2022-08-19T03:20:43;18.30;99.90
31369;DHT22;18004;48.416;10.066;2022-08-19T03:23:11;18.20;99.90
31369;DHT22;18004;48.416;10.066;2022-08-19T03:25:43;18.20;99.90
31369;DHT22;18004;48.416;10.066;2022-08-19T03:28:13;18.30;99.90
31369;DHT22;18004;48.416;10.066;2022-08-19T03:30:41;18.30;99.90
31369;DHT22;18004;48.416;10.066;2022-08-19T03:33:09;18.30;99.90
31369;DHT22;18004;48.416;10.066;2022-08-19T03:35:35;18.10;99.90
31369;DHT22;18004;48.416;10.066;2022-08-19T03:38:05;18.10;99.90
31369;DHT22;18004;48.416;10.066;2022-08-19T03:40:32;18.20;99.90
31369;DHT22;18004;48.416;10.066;2022-08-19T03:43:00;18.20;99.90
31369;DHT22;18004;48.416;10.066;2022-08-19T03:45:26;18.30;99.90
31369;DHT22;18004;48.416;10.066;2022-08-19T03:47:53;18.30;99.90
31369;DHT22;18004;48.416;10.066;2022-08-19T03:50:19;18.30;99.90
31369;DHT22;18004;48.416;10.066;2022-08-19T03:52:49;18.30;99.90
31369;DHT22;18004;48.416;10.066;2022-08-19T03:55:16;18.20;99.90
31369;DHT22;18004;48.416;10.066;2022-08-19T03:57:42;18.20;99.90
31369;DHT22;18004;48.416;10.066;2022-08-19T04:00:08;18.20;99.90
31369;DHT22;18004;48.416;10.066;2022-08-19T04:02:34;18.30;99.90
31369;DHT22;18004;48.416;10.066;2022-08-19T04:05:00;18.30;99.90
31369;DHT22;18004;48.416;10.066;2022-08-19T04:07:26;18.30;99.90
31369;DHT22;18004;48.416;10.066;2022-08-19T04:09:52;18.30;99.90
31369;DHT22;18004;48.416;10.066;2022-08-19T04:12:19;18.30;99.90
31369;DHT22;18004;48.416;10.066;2022-08-19T04:14:46;18.30;99.90
31369;DHT22;18004;48.416;10.066;2022-08-19T04:17:12;18.30;99.90
31369;DHT22;18004;48.416;10.066;2022-08-19T04:19:40;18.40;99.90
31369;DHT22;18004;48.416;10.066;2022-08-19T04:22:06;18.40;99.90
31369;DHT22;18004;48.416;10.066;2022-08-19T04:24:35;18.30;99.90
31369;DHT22;18004;48.416;10.066;2022-08-19T04:27:01;18.20;99.90
31369;DHT22;18004;48.416;10.066;2022-08-19T04:29:28;18.20;99.90
31369;DHT22;18004;48.416;10.066;2022-08-19T04:31:55;18.30;99.90
31369;DHT22;18004;48.416;10.066;2022-08-19T04:34:25;18.30;99.90
31369;DHT22;18004;48.416;10.066;2022-08-19T04:36:52;18.30;99.90
31369;DHT22;18004;48.416;10.066;2022-08-19T04:39:22;18.20;99.90
31369;DHT22;18004;48.416;10.066;2022-08-19T04:41:48;18.20;99.90
31369;DHT22;18004;48.416;10.066;2022-08-19T04:44:34;18.20;99.90
31369;DHT22;18004;48.416;10.066;2022-08-19T04:47:01;18.10;99.90
31369;DHT22;18004;48.416;10.066;2022-08-19T04:49:30;18.00;99.90
31369;DHT22;18004;48.416;10.066;2022-08-19T04:51:56;18.00;99.90
31369;DHT22;18004;48.416;10.066;2022-08-19T04:54:24;17.90;99.90
31369;DHT22;18004;48.416;10.066;2022-08-19T04:56:51;17.90;99.90
31369;DHT22;18004;48.416;10.066;2022-08-19T04:59:18;17.90;99.90
31369;DHT22;18004;48.416;10.066;2022-08-19T05:01:46;17.80;99.90
31369;DHT22;18004;48.416;10.066;2022-08-19T05:04:15;17.90;99.90
31369;DHT22;18004;48.416;10.066;2022-08-19T05:06:42;17.90;99.90
31369;DHT22;18004;48.416;10.066;2022-08-19T05:09:08;18.00;99.90
31369;DHT22;18004;48.416;10.066;2022-08-19T05:11:36;18.00;99.90
31369;DHT22;18004;48.416;10.066;2022-08-19T05:14:07;17.80;99.90
31369;DHT22;18004;48.416;10.066;2022-08-19T05:16:32;17.80;99.90
31369;DHT22;18004;48.416;10.066;2022-08-19T05:18:58;17.70;99.90
31369;DHT22;18004;48.416;10.066;2022-08-19T05:21:43;17.80;99.90
31369;DHT22;18004;48.416;10.066;2022-08-19T05:24:29;17.80;99.90
31369;DHT22;18004;48.416;10.066;2022-08-19T05:26:55;17.80;99.90
31369;DHT22;18004;48.416;10.066;2022-08-19T05:29:26;17.90;99.90
31369;DHT22;18004;48.416;10.066;2022-08-19T05:31:54;18.00;99.90
31369;DHT22;18004;48.416;10.066;2022-08-19T05:34:21;18.00;99.90
31369;DHT22;18004;48.416;10.066;2022-08-19T05:36:49;18.00;99.90
31369;DHT22;18004;48.416;10.066;2022-08-19T05:39:17;18.10;99.90
31369;DHT22;18004;48.416;10.066;2022-08-19T05:41:50;18.20;99.90
31369;DHT22;18004;48.416;10.066;2022-08-19T05:44:18;18.20;99.90
31369;DHT22;18004;48.416;10.066;2022-08-19T05:46:46;18.10;99.90
31369;DHT22;18004;48.416;10.066;2022-08-19T05:49:19;18.00;99.90
31369;DHT22;18004;48.416;10.066;2022-08-19T05:51:45;18.10;99.90
31369;DHT22;18004;48.416;10.066;2022-08-19T05:54:11;18.10;99.90
31369;DHT22;18004;48.416;10.066;2022-08-19T05:56:40;18.00;99.90
31369;DHT22;18004;48.416;10.066;2022-08-19T05:59:08;17.90;99.90
31369;DHT22;18004;48.416;10.066;2022-08-19T06:01:43;17.90;99.90
31369;DHT22;18004;48.416;10.066;2022-08-19T06:04:09;17.80;99.90
31369;DHT22;18004;48.416;10.066;2022-08-19T06:06:35;17.70;99.90
31369;DHT22;18004;48.416;10.066;2022-08-19T06:09:03;17.70;99.90
31369;DHT22;18004;48.416;10.066;2022-08-19T06:14:07;17.80;99.90
31369;DHT22;18004;48.416;10.066;2022-08-19T06:16:35;17.80;99.90
31369;DHT22;18004;48.416;10.066;2022-08-19T06:19:06;17.70;99.90
31369;DHT22;18004;48.416;10.066;2022-08-19T06:21:34;17.70;99.90
31369;DHT22;18004;48.416;10.066;2022-08-19T06:24:00;17.60;99.90
31369;DHT22;18004;48.416;10.066;2022-08-19T06:26:26;17.60;99.90
31369;DHT22;18004;48.416;10.066;2022-08-19T06:28:53;17.60;99.90
31369;DHT22;18004;48.416;10.066;2022-08-19T06:31:22;17.50;99.90
31369;DHT22;18004;48.416;10.066;2022-08-19T06:33:49;17.50;99.90
31369;DHT22;18004;48.416;10.066;2022-08-19T06:36:22;17.40;99.90
31369;DHT22;18004;48.416;10.066;2022-08-19T06:38:51;17.40;99.90
31369;DHT22;18004;48.416;10.066;2022-08-19T06:41:19;17.50;99.90
31369;DHT22;18004;48.416;10.066;2022-08-19T06:43:45;17.50;99.90
31369;DHT22;18004;48.416;10.066;2022-08-19T06:46:14;17.40;99.90
31369;DHT22;18004;48.416;10.066;2022-08-19T06:48:41;17.40;99.90
31369;DHT22;18004;48.416;10.066;2022-08-19T06:51:07;17.40;99.90
31369;DHT22;18004;48.416;10.066;2022-08-19T06:53:33;17.40;99.90
31369;DHT22;18004;48.416;10.066;2022-08-19T06:55:59;17.30;99.90
31369;DHT22;18004;48.416;10.066;2022-08-19T06:58:29;17.30;99.90
31369;DHT22;18004;48.416;10.066;2022-08-19T07:01:07;17.30;99.90
31369;DHT22;18004;48.416;10.066;2022-08-19T07:03:35;17.30;99.90
31369;DHT22;18004;48.416;10.066;2022-08-19T07:06:11;17.20;99.90
31369;DHT22;18004;48.416;10.066;2022-08-19T07:08:38;17.20;99.90
31369;DHT22;18004;48.416;10.066;2022-08-19T07:11:08;17.20;99.90
31369;DHT22;18004;48.416;10.066;2022-08-19T07:13:35;17.20;99.90
31369;DHT22;18004;48.416;10.066;2022-08-19T07:16:13;17.20;99.90
31369;DHT22;18004;48.416;10.066;2022-08-19T07:18:40;17.10;99.90
31369;DHT22;18004;48.416;10.066;2022-08-19T07:21:09;17.10;99.90
31369;DHT22;18004;48.416;10.066;2022-08-19T07:23:35;17.10;99.90
31369;DHT22;18004;48.416;10.066;2022-08-19T07:26:11;17.00;99.90
31369;DHT22;18004;48.416;10.066;2022-08-19T07:28:38;17.00;99.90
31369;DHT22;18004;48.416;10.066;2022-08-19T07:31:09;17.00;99.90
31369;DHT22;18004;48.416;10.066;2022-08-19T07:33:35;17.10;99.90
31369;DHT22;18004;48.416;10.066;2022-08-19T07:36:06;17.00;99.90
31369;DHT22;18004;48.416;10.066;2022-08-19T07:38:33;17.00;99.90
31369;DHT22;18004;48.416;10.066;2022-08-19T07:41:00;17.10;99.90
31369;DHT22;18004;48.416;10.066;2022-08-19T07:43:26;17.10;99.90
31369;DHT22;18004;48.416;10.066;2022-08-19T07:45:54;17.10;99.90
31369;DHT22;18004;48.416;10.066;2022-08-19T07:48:23;17.10;99.90
31369;DHT22;18004;48.416;10.066;2022-08-19T07:50:55;17.20;99.90
31369;DHT22;18004;48.416;10.066;2022-08-19T07:53:22;17.20;99.90
31369;DHT22;18004;48.416;10.066;2022-08-19T07:55:48;17.20;99.90
31369;DHT22;18004;48.416;10.066;2022-08-19T07:58:18;17.20;99.90
31369;DHT22;18004;48.416;10.066;2022-08-19T08:00:46;17.30;99.90
31369;DHT22;18004;48.416;10.066;2022-08-19T08:03:14;17.40;99.90
31369;DHT22;18004;48.416;10.066;2022-08-19T08:05:41;17.40;99.90
31369;DHT22;18004;48.416;10.066;2022-08-19T08:08:26;17.40;99.90
31369;DHT22;18004;48.416;10.066;2022-08-19T08:11:11;17.30;99.90
31369;DHT22;18004;48.416;10.066;2022-08-19T08:13:37;17.20;99.90
31369;DHT22;18004;48.416;10.066;2022-08-19T08:16:04;17.20;99.90
31369;DHT22;18004;48.416;10.066;2022-08-19T08:18:29;17.20;99.90
31369;DHT22;18004;48.416;10.066;2022-08-19T08:20:57;17.20;99.90
31369;DHT22;18004;48.416;10.066;2022-08-19T08:23:24;17.30;99.90
31369;DHT22;18004;48.416;10.066;2022-08-19T08:25:57;17.30;99.90
31369;DHT22;18004;48.416;10.066;2022-08-19T08:28:25;17.30;99.90
31369;DHT22;18004;48.416;10.066;2022-08-19T08:30:51;17.30;99.90
31369;DHT22;18004;48.416;10.066;2022-08-19T08:33:19;17.20;99.90
31369;DHT22;18004;48.416;10.066;2022-08-19T08:35:45;17.20;99.90
31369;DHT22;18004;48.416;10.066;2022-08-19T08:38:12;17.10;99.90
31369;DHT22;18004;48.416;10.066;2022-08-19T08:40:53;17.00;99.90
31369;DHT22;18004;48.416;10.066;2022-08-19T08:46:08;16.90;99.90
31369;DHT22;18004;48.416;10.066;2022-08-19T08:48:43;16.90;99.90
31369;DHT22;18004;48.416;10.066;2022-08-19T08:51:28;16.90;99.90
31369;DHT22;18004;48.416;10.066;2022-08-19T08:53:55;16.90;99.90
31369;DHT22;18004;48.416;10.066;2022-08-19T08:56:21;16.90;99.90
31369;DHT22;18004;48.416;10.066;2022-08-19T09:01:23;17.00;99.90
31369;DHT22;18004;48.416;10.066;2022-08-19T09:03:49;17.10;99.90
31369;DHT22;18004;48.416;10.066;2022-08-19T09:06:32;17.10;99.90
31369;DHT22;18004;48.416;10.066;2022-08-19T09:09:41;17.00;99.90
31369;DHT22;18004;48.416;10.066;2022-08-19T09:12:41;17.10;99.90
31369;DHT22;18004;48.416;10.066;2022-08-19T09:15:12;17.10;99.90
31369;DHT22;18004;48.416;10.066;2022-08-19T09:17:38;17.10;99.90
31369;DHT22;18004;48.416;10.066;2022-08-19T09:20:28;17.20;99.90
31369;DHT22;18004;48.416;10.066;2022-08-19T09:22:54;17.20;99.90
31369;DHT22;18004;48.416;10.066;2022-08-19T09:25:22;17.20;99.90
31369;DHT22;18004;48.416;10.066;2022-08-19T09:27:49;17.30;99.90
31369;DHT22;18004;48.416;10.066;2022-08-19T09:30:26;17.30;99.90
31369;DHT22;18004;48.416;10.066;2022-08-19T09:32:54;17.40;99.90
31369;DHT22;18004;48.416;10.066;2022-08-19T09:35:25;17.40;99.90
31369;DHT22;18004;48.416;10.066;2022-08-19T09:37:51;17.40;99.90
31369;DHT22;18004;48.416;10.066;2022-08-19T09:40:18;17.40;99.90
31369;DHT22;18004;48.416;10.066;2022-08-19T09:42:45;17.50;99.90
31369;DHT22;18004;48.416;10.066;2022-08-19T09:45:16;17.50;99.90
31369;DHT22;18004;48.416;10.066;2022-08-19T09:47:47;17.50;99.90
31369;DHT22;18004;48.416;10.066;2022-08-19T09:50:13;17.50;99.90
31369;DHT22;18004;48.416;10.066;2022-08-19T09:52:39;17.60;99.90
31369;DHT22;18004;48.416;10.066;2022-08-19T09:55:06;17.70;99.90
31369;DHT22;18004;48.416;10.066;2022-08-19T09:57:32;17.70;99.90
31369;DHT22;18004;48.416;10.066;2022-08-19T09:59:58;17.70;99.90
31369;DHT22;18004;48.416;10.066;2022-08-19T10:02:24;17.80;99.90
31369;DHT22;18004;48.416;10.066;2022-08-19T10:04:51;17.80;99.90
31369;DHT22;18004;48.416;10.066;2022-08-19T10:07:36;17.80;99.90
31369;DHT22;18004;48.416;10.066;2022-08-19T10:10:04;17.90;99.90
31369;DHT22;18004;48.416;10.066;2022-08-19T10:12:31;17.90;99.90
31369;DHT22;18004;48.416;10.066;2022-08-19T10:14:58;17.90;99.90
31369;DHT22;18004;48.416;10.066;2022-08-19T10:17:24;18.00;99.90
31369;DHT22;18004;48.416;10.066;2022-08-19T10:19:51;18.00;99.90
31369;DHT22;18004;48.416;10.066;2022-08-19T10:22:18;18.00;99.90
31369;DHT22;18004;48.416;10.066;2022-08-19T10:24:47;17.90;99.90
31369;DHT22;18004;48.416;10.066;2022-08-19T10:27:13;18.00;99.90
31369;DHT22;18004;48.416;10.066;2022-08-19T10:29:40;18.00;99.90
31369;DHT22;18004;48.416;10.066;2022-08-19T10:32:07;18.10;99.90
31369;DHT22;18004;48.416;10.066;2022-08-19T10:34:35;18.10;99.90
31369;DHT22;18004;48.416;10.066;2022-08-19T10:37:02;18.20;99.90
31369;DHT22;18004;48.416;10.066;2022-08-19T10:39:29;18.20;99.90
31369;DHT22;18004;48.416;10.066;2022-08-19T10:41:56;18.10;99.90
31369;DHT22;18004;48.416;10.066;2022-08-19T10:44:22;18.10;99.90
31369;DHT22;18004;48.416;10.066;2022-08-19T10:46:49;18.10;99.90
31369;DHT22;18004;48.416;10.066;2022-08-19T10:49:16;18.00;99.90
31369;DHT22;18004;48.416;10.066;2022-08-19T10:51:42;18.00;99.90
31369;DHT22;18004;48.416;10.066;2022-08-19T10:54:33;18.00;99.90
31369;DHT22;18004;48.416;10.066;2022-08-19T10:57:18;17.90;99.90
31369;DHT22;18004;48.416;10.066;2022-08-19T10:59:44;17.90;99.90
31369;DHT22;18004;48.416;10.066;2022-08-19T11:02:11;17.80;99.90
31369;DHT22;18004;48.416;10.066;2022-08-19T11:04:38;17.80;99.90
31369;DHT22;18004;48.416;10.066;2022-08-19T11:07:06;17.70;99.90
31369;DHT22;18004;48.416;10.066;2022-08-19T11:09:37;17.70;99.90
31369;DHT22;18004;48.416;10.066;2022-08-19T11:12:05;17.70;99.90
31369;DHT22;18004;48.416;10.066;2022-08-19T11:14:31;17.70;99.90
31369;DHT22;18004;48.416;10.066;2022-08-19T11:16:58;17.70;99.90
31369;DHT22;18004;48.416;10.066;2022-08-19T11:19:24;17.70;99.90
31369;DHT22;18004;48.416;10.066;2022-08-19T11:21:50;17.70;99.90
31369;DHT22;18004;48.416;10.066;2022-08-19T11:24:20;17.80;99.90
31369;DHT22;18004;48.416;10.066;2022-08-19T11:26:47;17.90;99.90
31369;DHT22;18004;48.416;10.066;2022-08-19T11:29:19;17.90;99.90
31369;DHT22;18004;48.416;10.066;2022-08-19T11:31:47;18.00;99.90
31369;DHT22;18004;48.416;10.066;2022-08-19T11:34:19;18.00;99.90
31369;DHT22;18004;48.416;10.066;2022-08-19T11:36:46;17.90;99.90
31369;DHT22;18004;48.416;10.066;2022-08-19T11:39:16;17.90;99.90
31369;DHT22;18004;48.416;10.066;2022-08-19T11:41:42;18.00;99.90
31369;DHT22;18004;48.416;10.066;2022-08-19T11:44:08;18.00;99.90
31369;DHT22;18004;48.416;10.066;2022-08-19T11:46:37;18.10;99.90
31369;DHT22;18004;48.416;10.066;2022-08-19T11:49:05;18.10;99.90
31369;DHT22;18004;48.416;10.066;2022-08-19T11:51:33;18.10;99.90
31369;DHT22;18004;48.416;10.066;2022-08-19T11:54:00;18.10;99.90
31369;DHT22;18004;48.416;10.066;2022-08-19T11:56:27;18.20;99.90
31369;DHT22;18004;48.416;10.066;2022-08-19T11:58:54;18.20;99.90
31369;DHT22;18004;48.416;10.066;2022-08-19T12:01:23;18.20;99.90
31369;DHT22;18004;48.416;10.066;2022-08-19T12:03:51;18.10;99.90
31369;DHT22;18004;48.416;10.066;2022-08-19T12:06:23;18.20;99.90
31369;DHT22;18004;48.416;10.066;2022-08-19T12:08:51;18.20;99.90
31369;DHT22;18004;48.416;10.066;2022-08-19T12:11:18;18.20;99.90
31369;DHT22;18004;48.416;10.066;2022-08-19T12:13:44;18.20;99.90
31369;DHT22;18004;48.416;10.066;2022-08-19T12:16:18;18.20;99.90
31369;DHT22;18004;48.416;10.066;2022-08-19T12:18:44;18.20;99.90
31369;DHT22;18004;48.416;10.066;2022-08-19T12:21:15;18.20;99.90
31369;DHT22;18004;48.416;10.066;2022-08-19T12:23:42;18.20;99.90
31369;DHT22;18004;48.416;10.066;2022-08-19T12:26:10;18.20;99.90
31369;DHT22;18004;48.416;10.066;2022-08-19T12:28:37;18.20;99.90
31369;DHT22;18004;48.416;10.066;2022-08-19T12:31:03;18.10;99.90
31369;DHT22;18004;48.416;10.066;2022-08-19T12:33:28;18.10;99.90
31369;DHT22;18004;48.416;10.066;2022-08-19T12:35:55;18.20;99.90
31369;DHT22;18004;48.416;10.066;2022-08-19T12:38:25;18.20;99.90
31369;DHT22;18004;48.416;10.066;2022-08-19T12:40:51;18.20;99.90
31369;DHT22;18004;48.416;10.066;2022-08-19T12:43:19;18.20;99.90
31369;DHT22;18004;48.416;10.066;2022-08-19T12:45:45;18.20;99.90
31369;DHT22;18004;48.416;10.066;2022-08-19T12:48:12;18.20;99.90
31369;DHT22;18004;48.416;10.066;2022-08-19T12:50:43;18.20;99.90
31369;DHT22;18004;48.416;10.066;2022-08-19T12:53:11;18.10;99.90
31369;DHT22;18004;48.416;10.066;2022-08-19T12:55:37;18.00;99.90
31369;DHT22;18004;48.416;10.066;2022-08-19T12:58:02;18.00;99.90
31369;DHT22;18004;48.416;10.066;2022-08-19T13:00:29;18.00;99.90
31369;DHT22;18004;48.416;10.066;2022-08-19T13:02:56;18.00;99.90
31369;DHT22;18004;48.416;10.066;2022-08-19T13:05:24;18.00;99.90
31369;DHT22;18004;48.416;10.066;2022-08-19T13:07:52;18.00;99.90
31369;DHT22;18004;48.416;10.066;2022-08-19T13:10:22;18.10;99.90
31369;DHT22;18004;48.416;10.066;2022-08-19T13:12:50;18.10;99.90
31369;DHT22;18004;48.416;10.066;2022-08-19T13:15:18;18.10;99.90
31369;DHT22;18004;48.416;10.066;2022-08-19T13:17:47;18.10;99.90
31369;DHT22;18004;48.416;10.066;2022-08-19T13:20:18;18.20;99.90
31369;DHT22;18004;48.416;10.066;2022-08-19T13:22:45;18.20;99.90
31369;DHT22;18004;48.416;10.066;2022-08-19T13:25:12;18.30;99.90
31369;DHT22;18004;48.416;10.066;2022-08-19T13:27:39;18.30;99.90
31369;DHT22;18004;48.416;10.066;2022-08-19T13:30:08;18.30;99.90
31369;DHT22;18004;48.416;10.066;2022-08-19T13:32:53;18.30;99.90
31369;DHT22;18004;48.416;10.066;2022-08-19T13:38:11;18.20;99.90
31369;DHT22;18004;48.416;10.066;2022-08-19T13:40:39;18.30;99.90
31369;DHT22;18004;48.416;10.066;2022-08-19T13:43:05;18.20;99.90
31369;DHT22;18004;48.416;10.066;2022-08-19T13:45:34;18.30;99.90
31369;DHT22;18004;48.416;10.066;2022-08-19T13:48:02;18.30;99.90
31369;DHT22;18004;48.416;10.066;2022-08-19T13:50:32;18.30;99.90
31369;DHT22;18004;48.416;10.066;2022-08-19T13:52:59;18.30;99.90
31369;DHT22;18004;48.416;10.066;2022-08-19T13:55:26;18.30;99.90
31369;DHT22;18004;48.416;10.066;2022-08-19T13:57:56;18.30;99.90
31369;DHT22;18004;48.416;10.066;2022-08-19T14:00:28;18.30;99.90
31369;DHT22;18004;48.416;10.066;2022-08-19T14:02:56;18.20;99.90
31369;DHT22;18004;48.416;10.066;2022-08-19T14:05:24;18.10;99.90
31369;DHT22;18004;48.416;10.066;2022-08-19T14:07:54;18.10;99.90
31369;DHT22;18004;48.416;10.066;2022-08-19T14:10:20;18.00;99.90
31369;DHT22;18004;48.416;10.066;2022-08-19T14:12:46;18.00;99.90
31369;DHT22;18004;48.416;10.066;2022-08-19T14:15:14;18.00;99.90
31369;DHT22;18004;48.416;10.066;2022-08-19T14:17:42;17.90;99.90
31369;DHT22;18004;48.416;10.066;2022-08-19T14:20:09;17.90;99.90
31369;DHT22;18004;48.416;10.066;2022-08-19T14:22:38;17.90;99.90
31369;DHT22;18004;48.416;10.066;2022-08-19T14:25:06;17.90;99.90
31369;DHT22;18004;48.416;10.066;2022-08-19T14:27:33;17.80;99.90
31369;DHT22;18004;48.416;10.066;2022-08-19T14:29:59;17.90;99.90
31369;DHT22;18004;48.416;10.066;2022-08-19T14:32:25;17.90;99.90
31369;DHT22;18004;48.416;10.066;2022-08-19T14:34:52;17.90;99.90
31369;DHT22;18004;48.416;10.066;2022-08-19T14:37:18;17.80;99.90
31369;DHT22;18004;48.416;10.066;2022-08-19T14:39:48;17.80;99.90
31369;DHT22;18004;48.416;10.066;2022-08-19T14:42:14;17.80;99.90
31369;DHT22;18004;48.416;10.066;2022-08-19T14:44:41;17.80;99.90
31369;DHT22;18004;48.416;10.066;2022-08-19T14:47:07;17.80;99.90
31369;DHT22;18004;48.416;10.066;2022-08-19T14:49:33;17.80;99.90
31369;DHT22;18004;48.416;10.066;2022-08-19T14:51:59;17.80;99.90
31369;DHT22;18004;48.416;10.066;2022-08-19T14:54:25;17.80;99.90
31369;DHT22;18004;48.416;10.066;2022-08-19T14:56:51;17.80;99.90
31369;DHT22;18004;48.416;10.066;2022-08-19T14:59:17;17.90;99.90
31369;DHT22;18004;48.416;10.066;2022-08-19T15:01:43;17.90;99.90
31369;DHT22;18004;48.416;10.066;2022-08-19T15:04:09;18.00;99.90
31369;DHT22;18004;48.416;10.066;2022-08-19T15:06:34;18.10;99.90
31369;DHT22;18004;48.416;10.066;2022-08-19T15:09:00;18.10;99.90
31369;DHT22;18004;48.416;10.066;2022-08-19T15:11:27;18.20;99.90
31369;DHT22;18004;48.416;10.066;2022-08-19T15:13:55;18.20;99.90
31369;DHT22;18004;48.416;10.066;2022-08-19T15:16:21;18.20;99.90
31369;DHT22;18004;48.416;10.066;2022-08-19T15:18:49;18.30;99.90
31369;DHT22;18004;48.416;10.066;2022-08-19T15:21:16;18.30;99.90
31369;DHT22;18004;48.416;10.066;2022-08-19T15:23:44;18.30;99.90
31369;DHT22;18004;48.416;10.066;2022-08-19T15:26:11;18.30;99.90
31369;DHT22;18004;48.416;10.066;2022-08-19T15:28:37;18.30;99.90
31369;DHT22;18004;48.416;10.066;2022-08-19T15:31:03;18.30;99.90
31369;DHT22;18004;48.416;10.066;2022-08-19T15:33:32;18.30;99.90
31369;DHT22;18004;48.416;10.066;2022-08-19T15:35:58;18.40;99.90
31369;DHT22;18004;48.416;10.066;2022-08-19T15:38:24;18.40;99.90